Terminal Aerodrome Forecast
Issued by NWS Indianapolis, IN

Home | Current Version | Previous Version | Text Only | Print | Product List | Glossary On
Versions: 1 2 3 4 5 6 7 8 9 10 11 12 13 14 15 16 17 18 19 20 21 22 23 24 25 26 27 28
000
FTUS43 KIND 232027 CCA
TAFIND
TAF COR
KIND 232027Z 2320/2424 29013G18KT P6SM -RA SCT008 OVC015
      TEMPO 2320/2323 4SM -RA BR OVC008
     FM232300 29013G20KT P6SM -RA SCT015 OVC050
      TEMPO 2323/2402 4SM -RA BR BKN015 OVC050
     FM240300 27007KT P6SM VCSH OVC020
     FM240900 25010KT P6SM OVC030
     FM241400 25012G25KT P6SM OVC015=

USA.gov is the U.S. government's official web portal to all federal, state and local government web resources and services.